Time;durP1;ratioP1;P1;durP2;ratioP2;P2;SDS_P1;SDS_P2;PMS_P1;PMS_P2;Temp;Humidity;BMP_temperature;BMP_pressure;BME280_temperature;BME280_humidity;BME280_pressure;Samples;Min_cycle;Max_cycle;Signal;HPM_P1;HPM_P2
2022/03/30 00:01:14;;;;;;;20.85;8.60;;;6.70;99.90;;;;;;5072182;28;20032;-36
2022/03/30 00:03:40;;;;;;;27.55;8.77;;;6.60;99.90;;;;;;5054213;28;20101;-40
2022/03/30 00:06:05;;;;;;;27.83;10.07;;;6.60;99.90;;;;;;5072389;28;20079;-36
2022/03/30 00:08:31;;;;;;;25.38;8.85;;;6.50;99.90;;;;;;5072004;28;20036;-37
2022/03/30 00:10:57;;;;;;;26.42;9.60;;;6.50;99.90;;;;;;5072681;28;20028;-37
2022/03/30 00:13:23;;;;;;;22.52;8.60;;;6.50;99.90;;;;;;5071564;28;20020;-29
2022/03/30 00:15:49;;;;;;;20.13;9.48;;;6.50;99.90;;;;;;5072551;28;20043;-29
2022/03/30 00:18:15;;;;;;;22.15;9.90;;;6.40;99.90;;;;;;5072441;28;20059;-28
2022/03/30 00:20:41;;;;;;;29.10;8.77;;;6.40;99.90;;;;;;5072092;28;20500;-29
2022/03/30 00:23:07;;;;;;;29.83;9.63;;;6.40;99.90;;;;;;5072579;28;20055;-32
2022/03/30 00:25:32;;;;;;;18.52;8.48;;;6.40;99.90;;;;;;5070273;28;20379;-37
2022/03/30 00:27:58;;;;;;;29.17;8.70;;;6.40;99.90;;;;;;5072448;28;20074;-37
2022/03/30 00:30:24;;;;;;;24.50;8.98;;;6.40;99.90;;;;;;5072558;28;20025;-37
2022/03/30 00:32:50;;;;;;;21.50;9.60;;;6.30;99.90;;;;;;5072446;28;20473;-36
2022/03/30 00:35:16;;;;;;;25.58;8.98;;;6.40;99.90;;;;;;5072565;28;20032;-37
2022/03/30 00:37:42;;;;;;;29.08;8.65;;;6.30;99.90;;;;;;5072383;28;20034;-36
2022/03/30 00:40:12;;;;;;;20.15;8.07;;;6.30;99.90;;;;;;5072054;28;20030;-52
2022/03/30 00:42:38;;;;;;;31.08;8.88;;;6.30;99.90;;;;;;5055494;28;20391;-39
2022/03/30 00:45:08;;;;;;;27.13;8.60;;;6.20;99.90;;;;;;5071840;28;20495;-28
2022/03/30 00:47:34;;;;;;;23.27;8.68;;;6.20;99.90;;;;;;5054506;28;20040;-27
2022/03/30 00:50:00;;;;;;;25.23;8.88;;;6.20;99.90;;;;;;5072062;28;20020;-34
2022/03/30 00:52:26;;;;;;;27.55;8.90;;;6.10;99.90;;;;;;5072301;28;20021;-28
2022/03/30 00:54:52;;;;;;;26.95;9.50;;;6.10;99.90;;;;;;5071447;28;20024;-28
2022/03/30 00:57:23;;;;;;;30.60;9.00;;;6.00;99.90;;;;;;5072095;28;20495;-31
2022/03/30 00:59:50;;;;;;;28.92;9.88;;;6.00;99.90;;;;;;5071723;28;20025;-29
2022/03/30 01:02:16;;;;;;;21.80;9.13;;;6.00;99.90;;;;;;5053760;28;20064;-48
2022/03/30 01:04:44;;;;;;;21.60;8.45;;;6.00;99.90;;;;;;5071555;28;20531;-36
2022/03/30 01:07:10;;;;;;;25.17;8.82;;;6.00;99.90;;;;;;5055294;28;20350;-38
2022/03/30 01:09:35;;;;;;;26.73;8.75;;;6.00;99.90;;;;;;5071767;28;20112;-37
2022/03/30 01:12:02;;;;;;;29.38;8.98;;;6.00;99.90;;;;;;5072207;28;20033;-29
2022/03/30 01:14:28;;;;;;;18.73;7.85;;;6.00;99.90;;;;;;5075293;28;20576;-28
2022/03/30 01:16:53;;;;;;;26.67;9.00;;;5.90;99.90;;;;;;5075912;28;20073;-34
2022/03/30 01:19:20;;;;;;;27.70;9.93;;;6.00;99.90;;;;;;5074114;28;20035;-29
2022/03/30 01:21:46;;;;;;;26.67;8.80;;;5.90;99.90;;;;;;5075626;28;20063;-37
2022/03/30 01:24:13;;;;;;;25.70;8.23;;;5.90;99.90;;;;;;5075288;28;20044;-33
2022/03/30 01:26:39;;;;;;;23.27;8.15;;;5.90;99.90;;;;;;5074985;28;20029;-37
2022/03/30 01:32:25;;;;;;;24.88;8.68;;;5.80;99.90;;;;;;5067434;28;20562;-44
2022/03/30 01:34:52;;;;;;;26.75;8.32;;;5.70;99.90;;;;;;5057260;28;20028;-37
2022/03/30 01:37:18;;;;;;;27.40;8.13;;;5.60;99.90;;;;;;5075220;28;20404;-33
2022/03/30 01:39:44;;;;;;;26.83;10.32;;;5.50;99.90;;;;;;5075241;28;20035;-48
2022/03/30 01:42:09;;;;;;;23.77;9.32;;;5.50;99.90;;;;;;5057156;28;20067;-51
2022/03/30 01:44:36;;;;;;;29.85;8.98;;;5.60;99.90;;;;;;5075028;28;20428;-35
2022/03/30 01:47:02;;;;;;;22.40;8.50;;;5.50;99.90;;;;;;5074912;28;20524;-30
2022/03/30 01:49:28;;;;;;;35.30;10.43;;;5.40;99.90;;;;;;5074711;28;20021;-34
2022/03/30 01:51:56;;;;;;;24.63;8.52;;;5.40;99.90;;;;;;5075209;28;20377;-32
2022/03/30 01:54:25;;;;;;;24.05;8.75;;;5.40;99.90;;;;;;5074482;28;20531;-34
2022/03/30 01:56:54;;;;;;;23.05;8.73;;;5.40;99.90;;;;;;5074355;28;20593;-31
2022/03/30 01:59:20;;;;;;;33.45;8.68;;;5.40;99.90;;;;;;5074103;28;20074;-30
2022/03/30 02:01:46;;;;;;;38.88;9.10;;;5.40;99.90;;;;;;5074364;28;20029;-31
2022/03/30 02:04:13;;;;;;;21.58;8.45;;;5.40;99.90;;;;;;5074595;28;20020;-30
2022/03/30 02:06:39;;;;;;;18.88;8.07;;;5.40;99.90;;;;;;5073494;28;20082;-32
2022/03/30 02:09:06;;;;;;;22.13;8.18;;;5.40;99.90;;;;;;5074560;28;20025;-29
2022/03/30 02:11:33;;;;;;;26.38;8.45;;;5.40;99.90;;;;;;5074731;28;20481;-38
2022/03/30 02:14:00;;;;;;;24.23;9.27;;;5.40;99.90;;;;;;5062559;28;20048;-34
2022/03/30 02:16:25;;;;;;;22.15;8.32;;;5.40;99.90;;;;;;5073639;28;20392;-30
2022/03/30 02:18:52;;;;;;;20.80;8.45;;;5.40;99.90;;;;;;5074521;28;20028;-34
2022/03/30 02:21:17;;;;;;;26.15;9.70;;;5.40;99.90;;;;;;5074508;28;20405;-30
2022/03/30 02:23:47;;;;;;;25.17;8.75;;;5.40;99.90;;;;;;5038982;28;20082;-29
2022/03/30 02:26:14;;;;;;;26.15;8.85;;;5.30;99.90;;;;;;5074009;28;20024;-30
2022/03/30 02:28:41;;;;;;;26.58;9.05;;;5.20;99.90;;;;;;5073887;28;20031;-58
2022/03/30 02:31:07;;;;;;;23.35;9.27;;;5.20;99.90;;;;;;5074413;28;20061;-37
2022/03/30 02:33:32;;;;;;;34.10;8.85;;;5.20;99.90;;;;;;5074003;28;20020;-29
2022/03/30 02:35:58;;;;;;;21.20;8.60;;;5.20;99.90;;;;;;5073343;28;20051;-29
2022/03/30 02:38:24;;;;;;;26.63;9.27;;;5.20;99.90;;;;;;5073906;28;20028;-32
2022/03/30 02:40:49;;;;;;;24.15;9.90;;;5.20;99.90;;;;;;5074016;28;20055;-30
2022/03/30 02:43:19;;;;;;;27.83;9.23;;;5.20;99.90;;;;;;5073736;28;20035;-29
2022/03/30 02:45:49;;;;;;;23.92;8.70;;;5.20;99.90;;;;;;5073955;28;20039;-31
2022/03/30 02:48:28;;;;;;;21.77;8.43;;;5.20;99.90;;;;;;5073994;28;20473;-30
2022/03/30 02:50:56;;;;;;;22.70;8.23;;;5.10;99.90;;;;;;5073810;28;20387;-31
2022/03/30 02:53:25;;;;;;;39.90;9.15;;;5.10;99.90;;;;;;5073569;28;20086;-28
2022/03/30 02:55:51;;;;;;;25.05;8.70;;;5.10;99.90;;;;;;5073255;28;20033;-31
2022/03/30 02:58:19;;;;;;;26.25;10.02;;;5.10;99.90;;;;;;5073886;28;20060;-29
2022/03/30 03:00:44;;;;;;;33.30;8.67;;;5.10;99.90;;;;;;5073365;28;20020;-41
2022/03/30 03:03:10;;;;;;;18.50;7.85;;;5.10;99.90;;;;;;5073773;28;20025;-28
2022/03/30 03:05:38;;;;;;;22.30;8.18;;;5.00;99.90;;;;;;5072658;28;20435;-34
2022/03/30 03:08:08;;;;;;;18.85;7.28;;;5.10;99.90;;;;;;5073019;28;20500;-36
2022/03/30 03:10:39;;;;;;;27.05;9.15;;;5.10;99.90;;;;;;5058830;28;20031;-31
2022/03/30 03:13:06;;;;;;;26.70;8.93;;;5.10;99.90;;;;;;5073664;28;20020;-29
2022/03/30 03:15:33;;;;;;;24.42;8.00;;;5.20;99.90;;;;;;5072738;28;20446;-29
2022/03/30 03:18:00;;;;;;;22.53;7.47;;;5.20;99.90;;;;;;5073463;28;20476;-34
2022/03/30 03:20:26;;;;;;;28.27;9.38;;;5.30;99.90;;;;;;5073008;28;20564;-31
2022/03/30 03:22:51;;;;;;;25.48;8.13;;;5.30;99.90;;;;;;5073236;28;20016;-34
2022/03/30 03:25:17;;;;;;;21.77;7.93;;;5.20;99.90;;;;;;5072834;28;20442;-30
2022/03/30 03:27:43;;;;;;;18.08;7.43;;;5.10;99.90;;;;;;5073332;28;20023;-48
2022/03/30 03:30:10;;;;;;;32.17;8.95;;;5.10;99.90;;;;;;5072449;28;20027;-37
2022/03/30 03:32:36;;;;;;;24.67;7.93;;;5.10;99.90;;;;;;5072961;28;20027;-37
2022/03/30 03:35:04;;;;;;;29.77;7.85;;;5.10;99.90;;;;;;5072771;28;20025;-38
2022/03/30 03:37:30;;;;;;;18.52;8.18;;;5.10;99.90;;;;;;5072836;28;20025;-39
2022/03/30 03:39:55;;;;;;;26.35;7.63;;;5.10;99.90;;;;;;5054948;28;20361;-38
2022/03/30 03:42:21;;;;;;;24.35;7.97;;;5.00;99.90;;;;;;5054269;28;20029;-37
2022/03/30 03:44:47;;;;;;;22.73;7.47;;;5.00;99.90;;;;;;5072908;28;20024;-30
2022/03/30 03:47:13;;;;;;;23.83;7.60;;;5.00;99.90;;;;;;5072636;28;20048;-29
2022/03/30 03:49:40;;;;;;;16.73;6.72;;;5.00;99.90;;;;;;5054742;28;20056;-30
2022/03/30 03:52:06;;;;;;;23.02;7.82;;;5.00;99.90;;;;;;5072853;28;20060;-31
2022/03/30 03:54:32;;;;;;;22.05;7.60;;;5.00;99.90;;;;;;5072834;28;20085;-48
2022/03/30 03:56:58;;;;;;;27.55;7.85;;;5.00;99.90;;;;;;5072145;28;20480;-31
2022/03/30 03:59:23;;;;;;;26.63;7.80;;;5.00;99.90;;;;;;5072999;28;20024;-30
2022/03/30 04:01:49;;;;;;;20.27;7.20;;;5.10;99.90;;;;;;5072453;28;20028;-29
2022/03/30 04:04:16;;;;;;;18.45;7.97;;;5.10;99.90;;;;;;5072353;28;20025;-34
2022/03/30 04:06:41;;;;;;;16.58;7.88;;;5.10;99.90;;;;;;5072045;28;20037;-32
2022/03/30 04:09:07;;;;;;;17.85;8.15;;;5.10;99.90;;;;;;5072671;28;20047;-28
2022/03/30 04:11:32;;;;;;;22.15;6.97;;;5.00;99.90;;;;;;5072167;28;20024;-33
2022/03/30 04:13:58;;;;;;;18.58;8.30;;;5.00;99.90;;;;;;5072299;28;20095;-30
2022/03/30 04:16:24;;;;;;;27.67;7.97;;;5.00;99.90;;;;;;5072542;28;20035;-29
2022/03/30 04:18:49;;;;;;;17.50;7.53;;;4.90;99.90;;;;;;5054130;28;20476;-29
2022/03/30 04:21:15;;;;;;;19.65;7.63;;;4.90;99.90;;;;;;5072511;28;20396;-29
2022/03/30 04:23:41;;;;;;;15.00;6.78;;;4.90;99.90;;;;;;5053326;28;20577;-35
2022/03/30 04:26:10;;;;;;;15.30;7.18;;;4.90;99.90;;;;;;5072348;28;20024;-28
2022/03/30 04:28:40;;;;;;;18.75;6.97;;;4.80;99.90;;;;;;5072163;28;20053;-37
2022/03/30 04:31:12;;;;;;;22.55;7.53;;;4.80;99.90;;;;;;5072835;28;20511;-30
2022/03/30 04:33:39;;;;;;;25.45;7.75;;;4.70;99.90;;;;;;5071587;28;20124;-32
2022/03/30 04:36:05;;;;;;;26.13;8.18;;;4.70;99.90;;;;;;5072065;28;20388;-47
2022/03/30 04:38:32;;;;;;;17.45;7.50;;;4.60;99.90;;;;;;5072032;28;20107;-36
2022/03/30 04:40:58;;;;;;;27.58;8.60;;;4.60;99.90;;;;;;5072488;28;20024;-41
2022/03/30 04:43:24;;;;;;;24.67;8.10;;;4.60;99.90;;;;;;5072292;28;20033;-36
2022/03/30 04:45:49;;;;;;;26.05;9.45;;;4.50;99.90;;;;;;5053764;28;20040;-29
2022/03/30 04:48:18;;;;;;;23.15;7.20;;;4.50;99.90;;;;;;5073885;28;20039;-32
2022/03/30 04:50:44;;;;;;;18.02;8.18;;;4.50;99.90;;;;;;5076042;28;20027;-28
2022/03/30 04:53:12;;;;;;;25.45;8.13;;;4.60;99.90;;;;;;5076316;28;20395;-28
2022/03/30 04:55:39;;;;;;;28.60;8.77;;;4.50;99.90;;;;;;5075884;28;20484;-29
2022/03/30 04:58:05;;;;;;;20.42;9.07;;;4.50;99.90;;;;;;5075868;28;20020;-31
2022/03/30 05:00:32;;;;;;;24.08;8.43;;;4.50;99.90;;;;;;5075572;28;20032;-29
2022/03/30 05:02:58;;;;;;;23.48;9.25;;;4.50;99.90;;;;;;5075181;28;20024;-43
2022/03/30 05:05:24;;;;;;;15.50;7.25;;;4.40;99.90;;;;;;5074920;28;20051;-29
2022/03/30 05:07:49;;;;;;;26.00;8.73;;;4.40;99.90;;;;;;5075530;28;20028;-37
2022/03/30 05:10:15;;;;;;;24.35;8.85;;;4.40;99.90;;;;;;5054224;28;20071;-31
2022/03/30 05:12:42;;;;;;;30.23;8.25;;;4.40;99.90;;;;;;5057613;28;20021;-32
2022/03/30 05:15:09;;;;;;;23.30;8.45;;;4.40;99.90;;;;;;5075556;28;20066;-30
2022/03/30 05:17:37;;;;;;;19.20;7.72;;;4.40;99.90;;;;;;5075716;28;20020;-48
2022/03/30 05:20:04;;;;;;;20.75;7.40;;;4.40;99.90;;;;;;5075510;28;20029;-37
2022/03/30 05:22:30;;;;;;;25.98;8.63;;;4.30;99.90;;;;;;5057640;28;20074;-37
2022/03/30 05:24:56;;;;;;;21.85;8.20;;;4.30;99.90;;;;;;5075454;28;20032;-37
2022/03/30 05:27:24;;;;;;;23.60;7.93;;;4.30;99.90;;;;;;5075197;28;20020;-38
2022/03/30 05:29:50;;;;;;;26.95;9.10;;;4.40;99.90;;;;;;5075366;28;20191;-37
2022/03/30 05:32:16;;;;;;;24.55;10.13;;;4.40;99.90;;;;;;5075365;28;20496;-40
2022/03/30 05:34:41;;;;;;;18.02;8.45;;;4.50;99.90;;;;;;5074375;28;20146;-39
2022/03/30 05:37:07;;;;;;;22.40;7.82;;;4.40;99.90;;;;;;5075005;28;20103;-30
2022/03/30 05:39:35;;;;;;;24.73;9.45;;;4.40;99.90;;;;;;5074808;28;20044;-32
2022/03/30 05:42:01;;;;;;;30.27;8.93;;;4.40;99.90;;;;;;5074770;28;20523;-49
2022/03/30 05:44:27;;;;;;;33.90;9.30;;;4.50;99.90;;;;;;5075023;28;20048;-30
2022/03/30 05:46:53;;;;;;;21.77;8.40;;;4.50;99.90;;;;;;5075362;28;20365;-35
2022/03/30 05:49:19;;;;;;;28.95;9.35;;;4.50;99.90;;;;;;5069821;28;20025;-35
2022/03/30 05:51:45;;;;;;;32.75;9.05;;;4.50;99.90;;;;;;5056548;28;20488;-33
2022/03/30 05:54:11;;;;;;;20.52;8.25;;;4.60;99.90;;;;;;5074937;28;20021;-29
2022/03/30 05:59:21;;;;;;;19.52;8.07;;;4.70;99.90;;;;;;5073677;28;20399;-36
2022/03/30 06:01:46;;;;;;;18.98;8.40;;;4.80;99.90;;;;;;5057085;28;20032;-37
2022/03/30 06:04:12;;;;;;;25.30;8.57;;;4.80;99.90;;;;;;5074833;28;20032;-62
2022/03/30 06:06:37;;;;;;;21.55;8.70;;;4.90;99.90;;;;;;5074368;28;20052;-37
2022/03/30 06:09:07;;;;;;;19.20;8.43;;;4.90;99.90;;;;;;5056273;28;20061;-39
2022/03/30 06:11:33;;;;;;;18.20;8.13;;;5.00;99.90;;;;;;5074606;28;20027;-38
2022/03/30 06:13:58;;;;;;;30.77;9.70;;;5.00;99.90;;;;;;5074097;28;20490;-39
2022/03/30 06:16:27;;;;;;;26.27;8.70;;;5.10;99.90;;;;;;5074443;28;20029;-40
2022/03/30 06:18:54;;;;;;;19.05;7.95;;;5.20;99.90;;;;;;5073367;28;20071;-36
2022/03/30 06:21:21;;;;;;;34.53;8.87;;;5.30;99.90;;;;;;5073683;28;20476;-37
2022/03/30 06:23:51;;;;;;;22.58;7.90;;;5.40;99.90;;;;;;5073696;28;20484;-37
2022/03/30 06:26:17;;;;;;;21.25;9.18;;;5.50;99.90;;;;;;5074073;28;20032;-39
2022/03/30 06:28:42;;;;;;;21.35;9.45;;;5.50;99.90;;;;;;5073769;28;20020;-34
2022/03/30 06:31:09;;;;;;;25.27;9.43;;;5.60;99.90;;;;;;5072741;28;20024;-28
2022/03/30 06:33:35;;;;;;;26.58;8.43;;;5.70;99.90;;;;;;5079761;28;20020;-33
2022/03/30 06:36:01;;;;;;;30.23;8.40;;;5.80;99.90;;;;;;5073909;28;20020;-29
2022/03/30 06:38:27;;;;;;;31.92;9.50;;;5.90;99.90;;;;;;5073685;28;20081;-29
2022/03/30 06:40:53;;;;;;;28.50;9.20;;;6.00;99.90;;;;;;5073712;28;20059;-32
2022/03/30 06:43:18;;;;;;;31.15;9.05;;;6.10;99.90;;;;;;5073895;28;20054;-35
2022/03/30 06:45:46;;;;;;;27.75;9.07;;;6.20;99.90;;;;;;5055158;28;20035;-33
2022/03/30 06:48:11;;;;;;;26.23;8.70;;;6.30;99.90;;;;;;5054970;28;20036;-32
2022/03/30 06:50:38;;;;;;;20.60;7.35;;;6.40;99.90;;;;;;5073738;28;20394;-30
2022/03/30 06:53:06;;;;;;;26.42;10.80;;;6.60;99.90;;;;;;5073484;28;20024;-29
2022/03/30 06:55:31;;;;;;;28.00;8.00;;;6.60;99.90;;;;;;5060534;28;20108;-32
2022/03/30 06:57:57;;;;;;;20.25;8.35;;;6.60;99.90;;;;;;5065139;28;20052;-31
2022/03/30 07:00:23;;;;;;;24.27;8.00;;;6.60;99.90;;;;;;5074066;28;20055;-30
2022/03/30 07:02:49;;;;;;;24.65;9.88;;;6.70;99.90;;;;;;5073332;28;20056;-32
2022/03/30 07:05:14;;;;;;;23.38;8.38;;;6.70;99.90;;;;;;5072909;28;20048;-34
2022/03/30 07:10:33;;;;;;;23.88;8.68;;;7.00;99.90;;;;;;5072903;28;20070;-37
2022/03/30 07:13:03;;;;;;;33.13;8.98;;;7.10;99.90;;;;;;5071787;28;20031;-32
2022/03/30 07:15:30;;;;;;;14.82;7.22;;;7.10;99.90;;;;;;5073272;28;20547;-36
2022/03/30 07:17:58;;;;;;;24.85;8.48;;;7.20;99.90;;;;;;5072929;28;20111;-34
2022/03/30 07:20:26;;;;;;;26.05;8.00;;;7.40;99.90;;;;;;5073225;28;20511;-40
2022/03/30 07:22:53;;;;;;;24.08;8.57;;;7.50;99.90;;;;;;5073362;28;20021;-35
2022/03/30 07:25:22;;;;;;;22.80;8.35;;;7.60;99.90;;;;;;5055403;28;20044;-44
2022/03/30 07:27:51;;;;;;;20.65;8.13;;;7.70;99.90;;;;;;5073083;28;20027;-32
2022/03/30 07:30:18;;;;;;;29.33;8.90;;;7.80;99.90;;;;;;5073337;28;20037;-31
2022/03/30 07:32:45;;;;;;;23.90;6.90;;;8.00;99.90;;;;;;5073617;28;20382;-48
2022/03/30 07:35:13;;;;;;;22.45;7.50;;;8.00;99.90;;;;;;5072778;28;20028;-37
2022/03/30 07:37:42;;;;;;;18.40;7.03;;;8.00;99.90;;;;;;5073242;28;20140;-38
2022/03/30 07:40:09;;;;;;;23.65;8.48;;;8.00;99.90;;;;;;5073201;28;20031;-38
2022/03/30 07:42:35;;;;;;;15.13;5.60;;;8.10;99.90;;;;;;5072065;28;20059;-38
2022/03/30 07:45:03;;;;;;;16.08;6.38;;;8.40;99.90;;;;;;5072876;28;20425;-37
2022/03/30 07:47:31;;;;;;;;;;;8.60;99.90;;;;;;5073306;28;20023;-39
2022/03/30 07:49:58;;;;;;;14.70;6.03;;;8.70;99.90;;;;;;5055533;28;19904;-40
2022/03/30 07:52:24;;;;;;;19.35;6.22;;;8.90;99.90;;;;;;5073246;28;20123;-40
2022/03/30 07:54:52;;;;;;;22.83;6.68;;;9.00;99.90;;;;;;5073181;28;20012;-33
2022/03/30 07:57:25;;;;;;;27.15;7.03;;;9.20;99.90;;;;;;5073071;28;20389;-35
2022/03/30 07:59:51;;;;;;;20.85;6.90;;;9.40;99.90;;;;;;5073075;28;20103;-34
2022/03/30 08:02:18;;;;;;;19.23;7.10;;;9.40;99.90;;;;;;5076827;28;20064;-35
2022/03/30 08:04:45;;;;;;;21.80;7.38;;;9.30;99.90;;;;;;5073068;28;20097;-30
2022/03/30 08:07:11;;;;;;;20.60;7.30;;;9.20;99.90;;;;;;5072959;28;20504;-34
2022/03/30 08:09:37;;;;;;;30.20;8.45;;;9.20;99.90;;;;;;5072984;28;20094;-30
2022/03/30 08:12:04;;;;;;;21.58;8.13;;;9.10;99.90;;;;;;5072470;28;20384;-31
2022/03/30 08:14:29;;;;;;;22.88;8.20;;;9.20;99.90;;;;;;5053751;28;20482;-31
2022/03/30 08:16:55;;;;;;;30.45;7.43;;;9.30;99.90;;;;;;5069686;28;20036;-44
2022/03/30 08:19:21;;;;;;;21.23;6.80;;;9.40;99.90;;;;;;5072825;28;20032;-76
2022/03/30 08:24:39;;;;;;;22.63;7.05;;;9.50;99.90;;;;;;5018800;28;20069;-40
2022/03/30 08:27:05;;;;;;;18.30;5.97;;;9.70;99.90;;;;;;5063168;28;20500;-31
2022/03/30 08:29:31;;;;;;;18.23;6.47;;;9.80;99.90;;;;;;5070106;28;20108;-46
2022/03/30 08:31:57;;;;;;;20.70;7.63;;;9.70;99.90;;;;;;5061346;28;20020;-31
2022/03/30 08:34:23;;;;;;;24.42;7.07;;;9.80;99.90;;;;;;5057118;28;20028;-32
2022/03/30 08:36:49;;;;;;;23.40;7.60;;;9.80;99.90;;;;;;5075604;28;20461;-33
2022/03/30 08:39:15;;;;;;;19.08;7.22;;;9.80;99.90;;;;;;5075211;28;20031;-37
2022/03/30 08:41:43;;;;;;;16.27;8.18;;;9.90;99.90;;;;;;5075886;28;20082;-35
2022/03/30 08:44:09;;;;;;;13.98;7.10;;;9.90;99.90;;;;;;5057567;28;20106;-33
2022/03/30 08:46:38;;;;;;;21.65;7.30;;;10.10;99.90;;;;;;5074946;28;20492;-31
2022/03/30 08:49:04;;;;;;;19.45;7.40;;;10.20;99.90;;;;;;5075482;28;20016;-30
2022/03/30 08:51:31;;;;;;;17.48;6.32;;;10.20;99.90;;;;;;5066773;28;20082;-30
2022/03/30 08:53:56;;;;;;;22.23;7.33;;;10.20;99.90;;;;;;5075236;28;20070;-31
2022/03/30 08:56:24;;;;;;;13.50;5.93;;;10.30;99.90;;;;;;5071555;28;20067;-30
2022/03/30 08:58:54;;;;;;;15.50;6.73;;;10.40;99.90;;;;;;5056258;28;20029;-36
2022/03/30 09:01:23;;;;;;;22.90;7.55;;;10.50;99.90;;;;;;5058022;28;20451;-39
2022/03/30 09:04:00;;;;;;;16.60;6.53;;;10.50;99.90;;;;;;5075419;28;20029;-36
2022/03/30 09:06:39;;;;;;;14.80;6.15;;;10.80;99.90;;;;;;5068998;28;20492;-37
2022/03/30 09:09:06;;;;;;;13.63;6.40;;;11.00;99.90;;;;;;5057050;28;20496;-38
2022/03/30 09:11:45;;;;;;;19.00;6.95;;;11.10;99.90;;;;;;5047643;28;20057;-38
2022/03/30 09:14:12;;;;;;;17.13;7.07;;;11.30;99.90;;;;;;5075819;28;20524;-38
2022/03/30 09:16:44;;;;;;;16.35;6.90;;;11.50;99.90;;;;;;5057211;28;20561;-38
2022/03/30 09:19:12;;;;;;;20.40;7.22;;;11.70;99.90;;;;;;5074970;28;20440;-32
2022/03/30 09:21:41;;;;;;;;;;;11.80;99.90;;;;;;5075930;28;20017;-34
2022/03/30 09:24:07;;;;;;;17.98;6.57;;;11.80;99.90;;;;;;5075159;28;20388;-37
2022/03/30 09:26:33;;;;;;;16.08;7.10;;;11.90;99.90;;;;;;5075449;28;20020;-31
2022/03/30 09:28:58;;;;;;;16.70;7.35;;;11.90;99.90;;;;;;5074718;28;20039;-32
2022/03/30 09:31:25;;;;;;;17.95;7.25;;;11.90;99.90;;;;;;5072719;28;20086;-29
2022/03/30 09:33:53;;;;;;;19.50;8.32;;;11.60;99.90;;;;;;5075530;28;20021;-34
2022/03/30 09:36:33;;;;;;;11.95;6.70;;;11.60;99.90;;;;;;5075520;28;20477;-30
2022/03/30 09:38:59;;;;;;;15.05;7.03;;;11.70;99.90;;;;;;5075239;28;20021;-30
2022/03/30 09:41:24;;;;;;;14.50;7.43;;;11.70;99.90;;;;;;5090863;28;20032;-32
2022/03/30 09:44:02;;;;;;;11.65;5.95;;;11.90;99.90;;;;;;5057527;28;20377;-30
2022/03/30 09:46:28;;;;;;;12.65;6.47;;;11.90;99.90;;;;;;5056894;28;20032;-32
2022/03/30 09:48:54;;;;;;;12.93;6.00;;;11.80;99.90;;;;;;5075290;28;20029;-31
2022/03/30 09:51:22;;;;;;;16.52;6.63;;;11.70;99.90;;;;;;5072848;28;20031;-31
2022/03/30 09:53:48;;;;;;;12.73;5.35;;;12.00;99.90;;;;;;5068055;28;20021;-34
2022/03/30 09:56:16;;;;;;;14.65;5.32;;;11.90;99.90;;;;;;5072743;28;20029;-33
2022/03/30 09:58:43;;;;;;;12.00;5.63;;;12.00;99.90;;;;;;5072200;28;20025;-37
2022/03/30 10:01:16;;;;;;;14.25;4.72;;;12.10;99.90;;;;;;5073789;28;20021;-31
2022/03/30 10:03:52;;;;;;;11.18;5.80;;;12.10;99.90;;;;;;5074934;28;20124;-30
2022/03/30 10:06:21;;;;;;;10.52;4.35;;;12.00;99.90;;;;;;5086774;28;20488;-33
2022/03/30 10:08:50;;;;;;;17.35;4.95;;;12.10;99.90;;;;;;5095449;28;20483;-37
2022/03/30 10:11:16;;;;;;;13.15;4.50;;;12.10;99.90;;;;;;5091332;28;20464;-38
2022/03/30 10:13:44;;;;;;;11.43;4.05;;;12.10;99.90;;;;;;5072961;28;20028;-39
2022/03/30 10:16:10;;;;;;;8.45;4.25;;;12.10;99.90;;;;;;5074474;28;20067;-38
2022/03/30 10:18:37;;;;;;;14.45;4.47;;;12.00;99.90;;;;;;5070799;28;20104;-35
2022/03/30 10:21:15;;;;;;;7.63;3.72;;;12.00;99.90;;;;;;5072642;28;20077;-38
2022/03/30 10:23:59;;;;;;;7.50;4.63;;;12.20;99.90;;;;;;5048463;28;20085;-38
2022/03/30 10:26:51;;;;;;;12.40;4.05;;;12.30;99.90;;;;;;5057125;28;20055;-34
2022/03/30 10:29:18;;;;;;;7.40;3.95;;;12.60;99.90;;;;;;5062311;28;20045;-38
2022/03/30 10:32:21;;;;;;;11.35;4.25;;;12.80;99.90;;;;;;5073569;28;20071;-45
2022/03/30 10:35:00;;;;;;;9.85;4.90;;;12.80;99.90;;;;;;5065401;28;20021;-40
2022/03/30 10:37:38;;;;;;;8.23;3.78;;;12.70;99.90;;;;;;5053719;28;20036;-37
2022/03/30 10:40:08;;;;;;;8.45;3.65;;;12.60;99.90;;;;;;5073022;28;20013;-38
2022/03/30 10:42:46;;;;;;;5.82;3.47;;;12.50;99.90;;;;;;5073897;28;20024;-38
2022/03/30 10:45:30;;;;;;;;;;;12.50;99.90;;;;;;5071510;28;20029;-38
2022/03/30 10:48:18;;;;;;;11.18;2.80;;;12.60;99.90;;;;;;5072761;28;19917;-34
2022/03/30 10:50:54;;;;;;;;;;;12.40;99.90;;;;;;5071419;28;20115;-34
2022/03/30 10:53:34;;;;;;;5.57;2.97;;;12.40;99.90;;;;;;5073434;28;19914;-39
2022/03/30 10:56:18;;;;;;;5.75;2.67;;;12.20;99.90;;;;;;5072653;28;20025;-38
2022/03/30 10:58:49;;;;;;;3.70;2.70;;;12.20;99.90;;;;;;5071766;28;20032;-38
2022/03/30 11:01:36;;;;;;;7.70;3.33;;;12.30;99.90;;;;;;5073570;28;20533;-39
2022/03/30 11:04:13;;;;;;;10.60;3.80;;;12.40;99.90;;;;;;5058692;28;20025;-47
2022/03/30 11:06:44;;;;;;;3.70;2.47;;;12.50;99.90;;;;;;5073391;28;20512;-38
2022/03/30 11:09:19;;;;;;;4.80;2.95;;;12.70;99.90;;;;;;5072141;28;20020;-40
2022/03/30 11:11:59;;;;;;;7.70;2.55;;;12.90;99.90;;;;;;5073842;28;20484;-37
2022/03/30 11:14:33;;;;;;;2.33;2.13;;;13.30;99.90;;;;;;5073031;28;20098;-44
2022/03/30 11:17:09;;;;;;;3.08;2.13;;;13.70;99.30;;;;;;5073697;28;20028;-36
2022/03/30 11:19:47;;;;;;;3.33;2.50;;;13.80;99.40;;;;;;5072608;28;20107;-38
2022/03/30 11:22:13;;;;;;;5.75;2.35;;;13.70;99.20;;;;;;5062594;28;20056;-38
2022/03/30 11:24:42;;;;;;;4.95;2.75;;;13.60;99.20;;;;;;5070320;28;20099;-38
2022/03/30 11:27:08;;;;;;;5.20;2.33;;;13.70;99.10;;;;;;5072778;28;20028;-39
2022/03/30 11:29:44;;;;;;;3.20;2.03;;;13.60;98.80;;;;;;5072504;28;20020;-38
2022/03/30 11:32:19;;;;;;;4.45;2.35;;;13.60;98.90;;;;;;5052834;28;20029;-40
2022/03/30 11:35:10;;;;;;;3.38;2.55;;;13.60;99.10;;;;;;5072819;28;20028;-39
2022/03/30 11:37:44;;;;;;;3.92;2.25;;;13.80;99.20;;;;;;5070489;28;20033;-38
2022/03/30 11:40:12;;;;;;;6.72;2.33;;;13.80;99.40;;;;;;5073284;28;20020;-38
2022/03/30 11:42:44;;;;;;;7.30;2.50;;;13.50;99.00;;;;;;5053490;28;20504;-38
2022/03/30 11:45:21;;;;;;;3.50;1.92;;;13.50;99.50;;;;;;5071241;28;20028;-37
2022/03/30 11:48:01;;;;;;;2.90;1.88;;;13.70;98.70;;;;;;5072582;28;20054;-33
2022/03/30 11:50:43;;;;;;;1.73;1.63;;;13.60;98.60;;;;;;5071572;28;20025;-36
2022/03/30 11:53:24;;;;;;;2.97;1.90;;;13.30;98.70;;;;;;5071843;28;20032;-33
2022/03/30 11:56:05;;;;;;;2.22;1.70;;;13.10;99.30;;;;;;5036693;28;20048;-31
2022/03/30 11:58:34;;;;;;;2.95;2.00;;;13.20;98.90;;;;;;5071580;28;20033;-30
2022/03/30 12:01:05;;;;;;;5.18;1.90;;;13.20;99.70;;;;;;5072552;28;20072;-32
2022/03/30 12:03:31;;;;;;;3.38;1.90;;;13.30;98.70;;;;;;5071152;28;20109;-32
2022/03/30 12:05:59;;;;;;;8.88;2.10;;;13.30;99.20;;;;;;5071221;28;20055;-36
2022/03/30 12:08:27;;;;;;;2.60;1.65;;;13.50;99.20;;;;;;5058161;28;20449;-34
2022/03/30 12:11:00;;;;;;;2.50;1.27;;;13.50;98.80;;;;;;5070952;28;20086;-37
2022/03/30 12:13:27;;;;;;;1.67;1.58;;;13.90;98.20;;;;;;5072174;28;20467;-35
2022/03/30 12:16:13;;;;;;;2.22;1.10;;;14.10;98.00;;;;;;5070128;28;20050;-30
2022/03/30 12:18:51;;;;;;;2.03;1.67;;;14.20;98.10;;;;;;5071936;28;20468;-48
2022/03/30 12:21:20;;;;;;;1.33;1.05;;;14.10;97.90;;;;;;5071578;28;20039;-44
2022/03/30 12:23:57;;;;;;;3.78;1.08;;;13.90;98.30;;;;;;5056336;28;20029;-51
2022/03/30 12:26:24;;;;;;;2.45;1.35;;;13.70;99.10;;;;;;5071136;28;20502;-39
2022/03/30 12:28:52;;;;;;;2.15;1.30;;;13.80;98.80;;;;;;5071905;28;20052;-41
2022/03/30 12:31:18;;;;;;;1.80;1.15;;;14.00;98.00;;;;;;5068964;28;20388;-37
2022/03/30 12:33:48;;;;;;;2.03;1.48;;;14.00;98.30;;;;;;5072111;28;20023;-39
2022/03/30 12:36:20;;;;;;;5.25;1.73;;;14.00;98.20;;;;;;5071924;28;20025;-39
2022/03/30 12:38:49;;;;;;;1.55;1.20;;;13.90;98.50;;;;;;5055985;28;20541;-40
2022/03/30 12:41:26;;;;;;;6.10;1.13;;;13.60;98.10;;;;;;5054501;28;20443;-36
2022/03/30 12:44:02;;;;;;;5.30;1.40;;;13.50;98.30;;;;;;5053723;28;20024;-33
2022/03/30 12:46:33;;;;;;;1.73;1.08;;;13.30;98.90;;;;;;5072517;28;20052;-33
2022/03/30 12:49:09;;;;;;;1.48;1.02;;;13.20;99.20;;;;;;5071789;28;20574;-32
2022/03/30 12:51:36;;;;;;;3.97;1.70;;;13.40;98.60;;;;;;5051947;28;20513;-30
2022/03/30 12:54:03;;;;;;;1.65;1.13;;;13.40;98.60;;;;;;5047457;28;20048;-38
2022/03/30 12:56:29;;;;;;;3.15;1.30;;;13.40;98.10;;;;;;5070689;28;20025;-37
2022/03/30 12:59:05;;;;;;;5.38;1.30;;;13.50;98.40;;;;;;5071655;28;20032;-39
2022/03/30 13:01:34;;;;;;;3.33;1.42;;;13.60;98.10;;;;;;5072081;28;20082;-39
2022/03/30 13:04:00;;;;;;;2.35;1.30;;;13.80;97.90;;;;;;5069572;28;20047;-38